createdAt,value
2023-02-16T00:01:20.608Z,183.60
2023-02-16T00:03:47.171Z,180.90
2023-02-16T00:06:13.780Z,195.30
2023-02-16T00:08:40.680Z,183.40
2023-02-16T00:11:18.914Z,181.20
2023-02-16T00:13:45.368Z,158.20
2023-02-16T00:16:19.554Z,165.10
2023-02-16T00:18:46.765Z,182.80
2023-02-16T00:21:13.549Z,169.60
2023-02-16T00:23:40.354Z,176.20
2023-02-16T00:26:22.463Z,173.70
2023-02-16T00:28:52.701Z,173.80
2023-02-16T00:31:22.075Z,180.60
2023-02-16T00:33:49.476Z,176.10
2023-02-16T00:36:16.035Z,173.00
2023-02-16T00:38:42.824Z,182.80
2023-02-16T00:41:17.236Z,166.20
2023-02-16T00:43:43.652Z,191.50
2023-02-16T00:46:10.385Z,177.00
2023-02-16T00:48:36.954Z,180.90
2023-02-16T00:51:11.130Z,180.60
2023-02-16T00:53:46.941Z,162.90
2023-02-16T00:56:20.161Z,167.80
2023-02-16T00:58:49.027Z,178.20
2023-02-16T01:01:18.103Z,165.30
2023-02-16T01:03:44.910Z,181.00
2023-02-16T01:06:12.063Z,168.80
2023-02-16T01:08:38.501Z,159.20
2023-02-16T01:11:07.637Z,158.50
2023-02-16T01:13:46.160Z,162.90
2023-02-16T01:16:27.856Z,162.80
2023-02-16T01:18:54.659Z,153.80
2023-02-16T01:21:22.124Z,153.40
2023-02-16T01:23:48.664Z,160.90
2023-02-16T01:26:19.772Z,155.00
2023-02-16T01:28:47.384Z,148.70
2023-02-16T01:31:14.990Z,155.50
2023-02-16T01:33:42.864Z,143.20
2023-02-16T01:36:43.367Z,138.30
2023-02-16T01:39:16.006Z,142.40
2023-02-16T01:41:49.333Z,140.20
2023-02-16T01:44:21.048Z,146.70
2023-02-16T01:47:04.451Z,146.50
2023-02-16T01:49:31.311Z,144.60
2023-02-16T01:52:37.973Z,150.30
2023-02-16T01:55:07.224Z,149.20
2023-02-16T01:57:59.610Z,153.70
2023-02-16T02:00:51.189Z,144.00
2023-02-16T02:03:21.244Z,144.80
2023-02-16T02:05:50.277Z,149.90
2023-02-16T02:08:25.837Z,146.30
2023-02-16T02:11:14.388Z,147.50
2023-02-16T02:13:47.497Z,146.00
2023-02-16T02:16:19.718Z,141.20
2023-02-16T02:18:46.784Z,155.80
2023-02-16T02:21:41.726Z,141.80
2023-02-16T02:24:23.480Z,148.10
2023-02-16T02:27:07.040Z,145.80
2023-02-16T02:30:01.802Z,144.50
2023-02-16T02:32:28.346Z,141.30
2023-02-16T02:35:25.443Z,141.40
2023-02-16T02:38:32.330Z,134.10
2023-02-16T02:41:32.966Z,130.20
2023-02-16T02:44:06.773Z,128.90
2023-02-16T02:46:35.735Z,135.90
2023-02-16T02:49:02.411Z,140.10
2023-02-16T02:51:29.097Z,135.40
2023-02-16T02:54:29.980Z,143.60
2023-02-16T02:57:02.777Z,123.50
2023-02-16T02:59:31.711Z,127.50
2023-02-16T03:02:01.386Z,126.60
2023-02-16T03:04:32.316Z,131.30
2023-02-16T03:07:01.574Z,127.70
2023-02-16T03:09:28.628Z,132.30
2023-02-16T03:11:57.491Z,116.70
2023-02-16T03:14:37.884Z,120.80
2023-02-16T03:17:10.742Z,126.20
2023-02-16T03:19:40.244Z,133.40
2023-02-16T03:22:06.719Z,128.40
2023-02-16T03:24:33.952Z,142.60
2023-02-16T03:27:02.197Z,137.40
2023-02-16T03:29:29.398Z,136.20
2023-02-16T03:31:57.322Z,129.50
2023-02-16T03:34:25.645Z,137.40
2023-02-16T03:36:56.520Z,137.00
2023-02-16T03:39:23.472Z,142.70
2023-02-16T03:41:52.223Z,142.00
2023-02-16T03:44:19.429Z,141.40
2023-02-16T03:46:46.517Z,149.60
2023-02-16T03:49:12.961Z,136.20
2023-02-16T03:51:39.401Z,144.10
2023-02-16T03:54:05.925Z,146.60
2023-02-16T03:56:32.584Z,154.00
2023-02-16T03:58:59.132Z,146.90
2023-02-16T04:01:26.756Z,151.40
2023-02-16T04:03:53.380Z,136.20
2023-02-16T04:06:20.089Z,156.40
2023-02-16T04:08:46.727Z,152.40
2023-02-16T04:11:13.772Z,153.10
2023-02-16T04:13:40.405Z,150.00
2023-02-16T04:16:07.497Z,142.30
2023-02-16T04:18:33.955Z,158.80
2023-02-16T04:21:00.671Z,145.90
2023-02-16T04:23:27.178Z,157.60
2023-02-16T04:25:53.834Z,156.90
2023-02-16T04:28:20.298Z,177.20
2023-02-16T04:30:46.912Z,202.70
2023-02-16T04:33:13.703Z,202.10
2023-02-16T04:35:40.516Z,164.80
2023-02-16T04:38:07.168Z,186.80
2023-02-16T04:40:33.712Z,169.60
2023-02-16T04:43:00.228Z,174.80
2023-02-16T04:45:26.799Z,174.30
2023-02-16T04:47:53.354Z,168.00
2023-02-16T04:50:20.173Z,160.20
2023-02-16T04:52:46.850Z,155.40
2023-02-16T04:55:13.324Z,152.90
2023-02-16T04:57:40.058Z,160.00
2023-02-16T05:00:09.712Z,157.40
2023-02-16T05:02:36.235Z,160.00
2023-02-16T05:05:02.886Z,152.70
2023-02-16T05:07:29.425Z,157.00
2023-02-16T05:09:56.590Z,152.80
2023-02-16T05:12:23.075Z,165.50
2023-02-16T05:14:49.888Z,172.40
2023-02-16T05:17:23.160Z,171.60
2023-02-16T05:19:53.216Z,156.90
2023-02-16T05:22:21.953Z,152.70
2023-02-16T05:24:49.549Z,157.70
2023-02-16T05:27:19.817Z,143.10
2023-02-16T05:29:46.454Z,140.00
2023-02-16T05:32:13.099Z,138.90
2023-02-16T05:34:40.004Z,140.80
2023-02-16T05:37:06.642Z,143.00
2023-02-16T05:39:33.805Z,145.10
2023-02-16T05:42:00.351Z,149.70
2023-02-16T05:44:27.090Z,150.20
2023-02-16T05:46:53.635Z,146.60
2023-02-16T05:49:20.247Z,141.80
2023-02-16T05:51:46.815Z,149.40
2023-02-16T05:54:14.376Z,149.30
2023-02-16T05:56:40.940Z,148.90
2023-02-16T05:59:07.407Z,141.20
2023-02-16T06:01:33.909Z,154.90
2023-02-16T06:04:00.473Z,152.30
2023-02-16T06:06:27.077Z,151.00
2023-02-16T06:08:53.569Z,135.20
2023-02-16T06:11:20.344Z,140.20
2023-02-16T06:13:46.798Z,154.40
2023-02-16T06:16:13.250Z,144.80
2023-02-16T06:18:39.764Z,138.90
2023-02-16T06:21:06.463Z,153.20
2023-02-16T06:23:32.991Z,161.80
2023-02-16T06:25:59.706Z,146.10
2023-02-16T06:28:26.570Z,161.80
2023-02-16T06:30:53.220Z,145.30
2023-02-16T06:33:19.836Z,154.40
2023-02-16T06:35:46.412Z,141.60
2023-02-16T06:38:13.021Z,154.90
2023-02-16T06:40:39.586Z,138.70
2023-02-16T06:43:06.192Z,133.20
2023-02-16T06:45:32.608Z,129.80
2023-02-16T06:47:59.175Z,124.00
2023-02-16T06:50:25.723Z,129.00
2023-02-16T06:52:52.424Z,129.50
2023-02-16T06:55:18.903Z,120.50
2023-02-16T06:57:45.361Z,119.50
2023-02-16T07:00:12.610Z,113.70
2023-02-16T07:02:39.091Z,128.20
2023-02-16T07:05:05.728Z,175.90
2023-02-16T07:07:32.177Z,141.60
2023-02-16T07:10:00.296Z,130.40
2023-02-16T07:12:27.047Z,122.00
2023-02-16T07:14:53.587Z,108.70
2023-02-16T07:17:20.529Z,97.10
2023-02-16T07:19:47.072Z,102.00
2023-02-16T07:22:13.616Z,85.90
2023-02-16T07:24:40.055Z,86.50
2023-02-16T07:27:06.804Z,84.00
2023-02-16T07:29:33.480Z,84.60
2023-02-16T07:32:00.040Z,71.60
2023-02-16T07:34:26.653Z,73.30
2023-02-16T07:36:53.242Z,67.90
2023-02-16T07:39:19.711Z,69.80
2023-02-16T07:41:46.249Z,72.20
2023-02-16T07:44:12.889Z,71.00
2023-02-16T07:46:39.531Z,68.50
2023-02-16T07:49:06.174Z,70.10
2023-02-16T07:51:32.657Z,70.40
2023-02-16T07:54:00.833Z,66.00
2023-02-16T07:56:29.994Z,67.70
2023-02-16T07:58:58.750Z,59.60
2023-02-16T08:01:25.375Z,58.90
2023-02-16T08:03:52.360Z,64.00
2023-02-16T08:06:19.845Z,63.70
2023-02-16T08:08:46.421Z,54.40
2023-02-16T08:11:16.221Z,60.00
2023-02-16T08:13:44.736Z,59.30
2023-02-16T08:16:16.410Z,60.50
2023-02-16T08:18:42.981Z,57.10
2023-02-16T08:21:15.793Z,61.80
2023-02-16T08:23:54.740Z,60.00
2023-02-16T08:26:23.459Z,60.20
2023-02-16T08:28:50.343Z,56.60
2023-02-16T08:31:19.752Z,61.90
2023-02-16T08:33:47.359Z,61.30
2023-02-16T08:36:34.674Z,62.70
2023-02-16T08:39:03.765Z,60.60
2023-02-16T08:41:33.734Z,55.00
2023-02-16T08:44:01.400Z,55.90
2023-02-16T08:46:29.748Z,52.20
2023-02-16T08:48:57.044Z,55.20
2023-02-16T08:51:24.137Z,58.00
2023-02-16T08:53:53.828Z,53.80
2023-02-16T08:56:20.258Z,55.40
2023-02-16T08:58:47.430Z,54.50
2023-02-16T09:01:15.137Z,49.50
2023-02-16T09:03:43.168Z,51.10
2023-02-16T09:06:11.638Z,51.70
2023-02-16T09:08:38.978Z,45.40
2023-02-16T09:11:13.402Z,49.80
2023-02-16T09:13:40.761Z,47.10
2023-02-16T09:16:21.620Z,45.90
2023-02-16T09:18:49.119Z,35.00
2023-02-16T09:21:19.070Z,37.90
2023-02-16T09:23:47.678Z,37.60
2023-02-16T09:26:24.714Z,36.40
2023-02-16T09:28:53.514Z,37.00
2023-02-16T09:31:28.158Z,33.40
2023-02-16T09:33:58.207Z,35.80
2023-02-16T09:36:25.247Z,32.80
2023-02-16T09:38:52.552Z,27.60
2023-02-16T09:41:21.945Z,27.40
2023-02-16T09:44:12.882Z,31.20
2023-02-16T09:46:41.880Z,32.70
2023-02-16T09:49:36.226Z,30.40
2023-02-16T09:52:16.755Z,35.80
2023-02-16T09:54:52.186Z,30.80
2023-02-16T09:57:53.919Z,35.80
2023-02-16T10:00:32.348Z,37.20
2023-02-16T10:03:17.544Z,31.80
2023-02-16T10:06:05.675Z,33.50
2023-02-16T10:08:41.284Z,44.80
2023-02-16T10:11:30.190Z,35.90
2023-02-16T10:14:04.210Z,34.90
2023-02-16T10:16:39.068Z,34.10
2023-02-16T10:19:18.617Z,38.90
2023-02-16T10:21:50.075Z,33.70
2023-02-16T10:24:17.123Z,38.50
2023-02-16T10:26:51.996Z,34.50
2023-02-16T10:29:20.683Z,34.70
2023-02-16T10:31:59.846Z,35.60
2023-02-16T10:34:43.309Z,37.10
2023-02-16T10:37:40.778Z,34.50
2023-02-16T10:40:55.042Z,37.00
2023-02-16T10:43:34.108Z,30.30
2023-02-16T10:46:01.635Z,31.40
2023-02-16T10:48:28.819Z,26.20
2023-02-16T10:51:03.913Z,26.70
2023-02-16T10:53:41.736Z,25.30
2023-02-16T10:56:32.385Z,27.10
2023-02-16T10:59:00.653Z,27.10
2023-02-16T11:01:38.039Z,28.90
2023-02-16T11:04:05.433Z,26.90
2023-02-16T11:06:32.019Z,23.00
2023-02-16T11:09:01.383Z,20.90
2023-02-16T11:11:30.669Z,22.50
2023-02-16T11:14:03.591Z,20.00
2023-02-16T11:16:31.421Z,25.40
2023-02-16T11:19:09.220Z,26.20
2023-02-16T11:21:54.232Z,24.30
2023-02-16T11:24:30.091Z,26.70
2023-02-16T11:27:06.319Z,18.10
2023-02-16T11:29:33.844Z,17.30
2023-02-16T11:32:06.748Z,18.60
2023-02-16T11:34:36.983Z,20.60
2023-02-16T11:37:14.016Z,21.80
2023-02-16T11:39:52.366Z,21.10
2023-02-16T11:42:24.808Z,20.80
2023-02-16T11:44:54.711Z,20.30
2023-02-16T11:47:34.937Z,19.20
2023-02-16T11:50:21.375Z,18.00
2023-02-16T11:52:49.820Z,20.80
2023-02-16T11:55:34.485Z,19.00
2023-02-16T11:58:33.539Z,21.90
2023-02-16T12:01:08.885Z,20.00
2023-02-16T12:04:17.003Z,20.70
2023-02-16T12:07:13.137Z,22.50
2023-02-16T12:10:00.854Z,22.90
2023-02-16T12:12:40.304Z,22.10
2023-02-16T12:15:15.649Z,24.30
2023-02-16T12:18:00.773Z,24.20
2023-02-16T12:20:55.520Z,22.90
2023-02-16T12:23:24.895Z,24.80
2023-02-16T12:26:36.845Z,23.00
2023-02-16T12:29:14.451Z,24.10
2023-02-16T12:32:15.180Z,24.00
2023-02-16T12:35:26.162Z,23.40
2023-02-16T12:38:17.546Z,25.90
2023-02-16T12:43:47.358Z,23.20
2023-02-16T12:46:27.427Z,22.80
2023-02-16T12:49:00.109Z,23.40
2023-02-16T12:51:48.003Z,22.40
2023-02-16T12:54:21.090Z,22.20
2023-02-16T12:56:59.414Z,23.60
2023-02-16T12:59:47.511Z,19.40
2023-02-16T13:02:37.253Z,27.80
2023-02-16T13:05:31.642Z,22.10
2023-02-16T13:08:06.674Z,18.60
2023-02-16T13:10:57.705Z,19.10
2023-02-16T13:13:27.723Z,20.40
2023-02-16T13:16:20.435Z,24.20
2023-02-16T13:18:55.959Z,17.40
2023-02-16T13:21:50.528Z,21.60
2023-02-16T13:24:31.935Z,21.40
2023-02-16T13:27:18.080Z,23.20
2023-02-16T13:29:53.745Z,24.00
2023-02-16T13:32:37.315Z,27.20
2023-02-16T13:35:41.850Z,21.60
2023-02-16T13:38:46.208Z,21.50
2023-02-16T13:41:27.843Z,24.50
2023-02-16T13:43:58.298Z,20.90
2023-02-16T13:46:24.775Z,20.90
2023-02-16T13:48:52.232Z,23.10
2023-02-16T13:51:22.197Z,21.80
2023-02-16T13:53:51.725Z,22.00
2023-02-16T13:56:37.432Z,23.20
2023-02-16T13:59:19.210Z,23.80
2023-02-16T14:01:48.150Z,23.10
2023-02-16T14:04:23.831Z,25.00
2023-02-16T14:06:51.325Z,24.20
2023-02-16T14:09:17.774Z,26.10
2023-02-16T14:12:09.234Z,24.30
2023-02-16T14:17:19.337Z,25.20
2023-02-16T14:20:00.666Z,26.70
2023-02-16T14:25:37.153Z,32.10
2023-02-16T14:28:22.087Z,30.00
2023-02-16T14:30:53.283Z,23.50
2023-02-16T14:35:58.443Z,28.40
2023-02-16T14:38:34.550Z,27.50
2023-02-16T14:41:04.327Z,28.40
2023-02-16T14:43:33.247Z,31.00
2023-02-16T14:46:18.731Z,33.10
2023-02-16T14:49:07.349Z,30.70
2023-02-16T14:51:36.532Z,29.30
2023-02-16T14:54:21.364Z,31.80
2023-02-16T14:56:54.778Z,30.30
2023-02-16T14:59:33.967Z,33.20
2023-02-16T15:02:00.929Z,34.20
2023-02-16T15:04:32.771Z,34.30
2023-02-16T15:07:03.854Z,34.10
2023-02-16T15:09:33.740Z,35.70
2023-02-16T15:12:05.653Z,32.40
2023-02-16T15:14:37.639Z,35.70
2023-02-16T15:17:07.571Z,34.90
2023-02-16T15:19:35.150Z,36.90
2023-02-16T15:22:19.416Z,35.40
2023-02-16T15:24:55.784Z,38.50
2023-02-16T15:27:24.185Z,37.00
2023-02-16T15:30:20.683Z,42.70
2023-02-16T15:32:57.208Z,41.60
2023-02-16T15:35:37.658Z,44.50
2023-02-16T15:38:13.606Z,44.60
2023-02-16T15:40:40.376Z,41.00
2023-02-16T15:43:17.436Z,45.70
2023-02-16T15:45:49.395Z,49.20
2023-02-16T15:48:37.102Z,50.20
2023-02-16T15:51:25.039Z,50.00
2023-02-16T15:54:03.927Z,51.60
2023-02-16T15:56:48.485Z,53.00
2023-02-16T15:59:43.483Z,52.20
2023-02-16T16:02:17.943Z,76.10
2023-02-16T16:04:57.769Z,383.20
2023-02-16T16:07:37.733Z,174.60
2023-02-16T16:10:16.936Z,132.40
2023-02-16T16:12:44.831Z,164.60
2023-02-16T16:15:19.629Z,182.20
2023-02-16T16:17:46.401Z,153.70
2023-02-16T16:20:27.945Z,87.30
2023-02-16T16:25:34.308Z,84.80
2023-02-16T16:28:02.367Z,81.80
2023-02-16T16:30:32.985Z,78.70
2023-02-16T16:33:08.438Z,66.50
2023-02-16T16:35:49.759Z,83.60
2023-02-16T16:38:33.831Z,82.00
2023-02-16T16:41:03.673Z,77.90
2023-02-16T16:43:37.845Z,72.80
2023-02-16T16:46:20.528Z,80.00
2023-02-16T16:48:50.074Z,416.00
2023-02-16T16:51:18.541Z,389.10
2023-02-16T16:53:50.700Z,741.10
2023-02-16T16:56:17.652Z,311.40
2023-02-16T16:58:47.782Z,406.20
2023-02-16T17:01:14.529Z,395.70
2023-02-16T17:03:41.272Z,417.90
2023-02-16T17:06:07.721Z,311.90
2023-02-16T17:08:36.337Z,1188.00
2023-02-16T17:11:04.529Z,611.50
2023-02-16T17:13:31.936Z,806.60
2023-02-16T17:16:07.455Z,266.70
2023-02-16T17:18:34.757Z,386.30
2023-02-16T17:21:01.270Z,323.40
2023-02-16T17:23:27.911Z,261.90
2023-02-16T17:25:54.374Z,243.70
2023-02-16T17:28:21.509Z,233.60
2023-02-16T17:30:48.089Z,265.50
2023-02-16T17:33:14.784Z,304.00
2023-02-16T17:35:43.474Z,285.00
2023-02-16T17:38:14.027Z,254.80
2023-02-16T17:40:40.727Z,212.10
2023-02-16T17:43:12.635Z,181.70
2023-02-16T17:45:39.701Z,197.20
2023-02-16T17:48:07.127Z,237.50
2023-02-16T17:50:33.964Z,225.50
2023-02-16T17:53:00.435Z,243.80
2023-02-16T17:55:27.367Z,235.80
2023-02-16T17:57:53.865Z,202.80
2023-02-16T18:00:21.648Z,244.60
2023-02-16T18:02:48.205Z,232.90
2023-02-16T18:05:15.356Z,221.30
2023-02-16T18:07:42.309Z,249.70
2023-02-16T18:10:16.267Z,206.20
2023-02-16T18:12:43.164Z,211.30
2023-02-16T18:15:10.317Z,189.60
2023-02-16T18:17:37.059Z,192.50
2023-02-16T18:20:04.568Z,190.10
2023-02-16T18:22:31.072Z,186.30
2023-02-16T18:24:57.597Z,185.50
2023-02-16T18:27:24.045Z,179.70
2023-02-16T18:29:51.409Z,227.90
2023-02-16T18:32:17.959Z,254.50
2023-02-16T18:34:45.225Z,311.00
2023-02-16T18:37:11.936Z,237.00
2023-02-16T18:39:38.679Z,255.90
2023-02-16T18:42:05.222Z,318.70
2023-02-16T18:44:34.464Z,354.50
2023-02-16T18:47:01.483Z,383.00
2023-02-16T18:49:28.637Z,372.70
2023-02-16T18:51:55.234Z,378.00
2023-02-16T18:54:21.767Z,396.00
2023-02-16T18:56:49.887Z,338.20
2023-02-16T18:59:16.362Z,287.60
2023-02-16T19:01:43.210Z,304.30
2023-02-16T19:04:10.244Z,332.20
2023-02-16T19:06:37.275Z,323.90
2023-02-16T19:09:04.750Z,305.50
2023-02-16T19:11:31.789Z,316.50
2023-02-16T19:13:58.246Z,251.30
2023-02-16T19:16:24.917Z,311.50
2023-02-16T19:18:52.014Z,249.50
2023-02-16T19:21:18.863Z,311.00
2023-02-16T19:23:45.636Z,329.90
2023-02-16T19:26:16.620Z,386.30
2023-02-16T19:28:43.703Z,404.90
2023-02-16T19:31:21.171Z,422.60
2023-02-16T19:33:48.309Z,407.00
2023-02-16T19:36:15.909Z,405.30
2023-02-16T19:38:43.687Z,422.90
2023-02-16T19:41:12.105Z,425.50
2023-02-16T19:43:38.723Z,437.90
2023-02-16T19:46:06.308Z,431.10
2023-02-16T19:48:33.648Z,420.70
2023-02-16T19:51:01.737Z,411.30
2023-02-16T19:53:30.189Z,414.40
2023-02-16T19:55:56.908Z,416.70
2023-02-16T19:58:24.899Z,425.60
2023-02-16T20:00:52.464Z,445.90
2023-02-16T20:03:19.189Z,462.40
2023-02-16T20:05:45.751Z,442.40
2023-02-16T20:08:12.360Z,416.60
2023-02-16T20:10:44.984Z,416.20
2023-02-16T20:13:15.394Z,426.30
2023-02-16T20:15:42.311Z,422.20
2023-02-16T20:18:08.796Z,437.80
2023-02-16T20:20:36.037Z,426.20
2023-02-16T20:23:02.988Z,403.10
2023-02-16T20:25:29.831Z,422.00
2023-02-16T20:27:57.214Z,432.60
2023-02-16T20:30:24.057Z,429.00
2023-02-16T20:32:50.762Z,459.90
2023-02-16T20:35:17.553Z,451.00
2023-02-16T20:37:44.068Z,465.10
2023-02-16T20:40:11.324Z,420.70
2023-02-16T20:42:37.987Z,437.40
2023-02-16T20:45:05.000Z,427.30
2023-02-16T20:47:32.983Z,463.90
2023-02-16T20:49:59.836Z,404.60
2023-02-16T20:52:26.577Z,404.50
2023-02-16T20:54:53.030Z,401.50
2023-02-16T20:57:26.861Z,406.80
2023-02-16T20:59:55.104Z,437.00
2023-02-16T21:02:21.707Z,398.30
2023-02-16T21:04:48.194Z,388.70
2023-02-16T21:07:14.597Z,374.30
2023-02-16T21:09:41.081Z,393.70
2023-02-16T21:12:07.582Z,403.60
2023-02-16T21:14:34.517Z,378.80
2023-02-16T21:17:01.178Z,392.20
2023-02-16T21:19:27.821Z,374.90
2023-02-16T21:21:54.564Z,372.30
2023-02-16T21:24:21.188Z,406.00
2023-02-16T21:26:47.801Z,505.50
2023-02-16T21:29:14.574Z,448.70
2023-02-16T21:31:41.188Z,447.60
2023-02-16T21:34:07.777Z,431.70
2023-02-16T21:36:34.316Z,424.60
2023-02-16T21:39:02.889Z,407.20
2023-02-16T21:41:30.169Z,392.20
2023-02-16T21:44:10.541Z,382.70
2023-02-16T21:46:42.320Z,359.20
2023-02-16T21:49:14.469Z,375.70
2023-02-16T21:51:42.631Z,389.70
2023-02-16T21:54:13.819Z,356.40
2023-02-16T21:59:12.922Z,368.30
2023-02-16T22:01:44.853Z,350.20
2023-02-16T22:04:13.216Z,374.00
2023-02-16T22:06:42.681Z,386.00
2023-02-16T22:09:12.966Z,389.70
2023-02-16T22:11:39.967Z,374.00
2023-02-16T22:14:06.939Z,366.50
2023-02-16T22:16:35.669Z,373.00
2023-02-16T22:19:07.292Z,347.50
2023-02-16T22:21:39.378Z,352.40
2023-02-16T22:24:07.717Z,363.00
2023-02-16T22:26:35.699Z,342.70
2023-02-16T22:29:06.990Z,352.30
2023-02-16T22:31:35.275Z,361.60
2023-02-16T22:34:07.536Z,354.30
2023-02-16T22:36:36.051Z,339.30
2023-02-16T22:39:02.611Z,341.60
2023-02-16T22:41:29.107Z,327.20
2023-02-16T22:43:56.629Z,320.20
2023-02-16T22:46:24.220Z,318.80
2023-02-16T22:48:51.742Z,333.60
2023-02-16T22:51:20.124Z,327.80
2023-02-16T22:53:46.969Z,347.20
2023-02-16T22:56:16.269Z,314.00
2023-02-16T22:58:43.290Z,315.40
2023-02-16T23:01:15.663Z,320.40
2023-02-16T23:03:43.206Z,332.80
2023-02-16T23:06:17.278Z,338.30
2023-02-16T23:08:45.468Z,370.40
2023-02-16T23:11:12.622Z,352.70
2023-02-16T23:13:39.154Z,366.80
2023-02-16T23:16:08.819Z,356.30
2023-02-16T23:18:35.760Z,314.70
2023-02-16T23:21:20.675Z,313.60
2023-02-16T23:23:48.896Z,370.60
2023-02-16T23:26:16.432Z,359.70
2023-02-16T23:28:44.314Z,368.00
2023-02-16T23:31:12.099Z,348.70
2023-02-16T23:33:39.416Z,376.10
2023-02-16T23:36:06.593Z,358.30
2023-02-16T23:38:33.845Z,360.70
2023-02-16T23:41:03.873Z,339.70
2023-02-16T23:43:31.319Z,318.80
2023-02-16T23:45:58.914Z,320.80
2023-02-16T23:48:26.448Z,321.70
2023-02-16T23:50:55.540Z,327.10
2023-02-16T23:53:24.263Z,320.00
2023-02-16T23:56:14.435Z,318.10
2023-02-16T23:58:42.788Z,287.20
